sensor_id;sensor_type;location;lat;lon;timestamp;P1;durP1;ratioP1;P2;durP2;ratioP2
67164;SDS011;54093;50.014;19.984;2022-07-10T00:07:32;5.53;;;4.20;;
67164;SDS011;54093;50.014;19.984;2022-07-10T00:16:53;6.60;;;4.13;;
67164;SDS011;54093;50.014;19.984;2022-07-10T00:26:14;4.72;;;4.32;;
67164;SDS011;54093;50.014;19.984;2022-07-10T00:35:34;4.05;;;3.75;;
67164;SDS011;54093;50.014;19.984;2022-07-10T00:44:55;3.63;;;3.33;;
67164;SDS011;54093;50.014;19.984;2022-07-10T00:54:16;3.85;;;3.55;;
67164;SDS011;54093;50.014;19.984;2022-07-10T01:03:37;7.25;;;4.47;;
67164;SDS011;54093;50.014;19.984;2022-07-10T01:12:58;4.43;;;4.03;;
67164;SDS011;54093;50.014;19.984;2022-07-10T01:22:20;4.13;;;3.80;;
67164;SDS011;54093;50.014;19.984;2022-07-10T01:31:40;4.78;;;4.38;;
67164;SDS011;54093;50.014;19.984;2022-07-10T01:41:01;4.22;;;3.92;;
67164;SDS011;54093;50.014;19.984;2022-07-10T01:50:22;5.00;;;4.60;;
67164;SDS011;54093;50.014;19.984;2022-07-10T01:59:43;3.90;;;3.67;;
67164;SDS011;54093;50.014;19.984;2022-07-10T02:09:04;4.65;;;4.25;;
67164;SDS011;54093;50.014;19.984;2022-07-10T02:18:25;4.28;;;3.97;;
67164;SDS011;54093;50.014;19.984;2022-07-10T02:27:46;5.97;;;5.40;;
67164;SDS011;54093;50.014;19.984;2022-07-10T02:37:06;6.18;;;5.43;;
67164;SDS011;54093;50.014;19.984;2022-07-10T02:46:27;6.13;;;5.72;;
67164;SDS011;54093;50.014;19.984;2022-07-10T02:55:48;7.70;;;5.10;;
67164;SDS011;54093;50.014;19.984;2022-07-10T03:05:09;5.20;;;4.70;;
67164;SDS011;54093;50.014;19.984;2022-07-10T03:14:30;5.95;;;4.95;;
67164;SDS011;54093;50.014;19.984;2022-07-10T03:23:51;6.88;;;4.53;;
67164;SDS011;54093;50.014;19.984;2022-07-10T03:33:11;4.80;;;4.40;;
67164;SDS011;54093;50.014;19.984;2022-07-10T03:42:32;4.28;;;3.83;;
67164;SDS011;54093;50.014;19.984;2022-07-10T03:51:53;6.88;;;4.47;;
67164;SDS011;54093;50.014;19.984;2022-07-10T04:01:14;6.28;;;4.13;;
67164;SDS011;54093;50.014;19.984;2022-07-10T04:10:35;4.22;;;3.83;;
67164;SDS011;54093;50.014;19.984;2022-07-10T04:19:56;4.35;;;4.05;;
67164;SDS011;54093;50.014;19.984;2022-07-10T04:29:17;3.90;;;3.60;;
67164;SDS011;54093;50.014;19.984;2022-07-10T04:38:38;3.53;;;3.10;;
67164;SDS011;54093;50.014;19.984;2022-07-10T04:47:58;6.90;;;3.30;;
67164;SDS011;54093;50.014;19.984;2022-07-10T04:57:19;5.93;;;3.10;;
67164;SDS011;54093;50.014;19.984;2022-07-10T05:06:40;5.63;;;3.10;;
67164;SDS011;54093;50.014;19.984;2022-07-10T05:16:01;3.65;;;3.45;;
67164;SDS011;54093;50.014;19.984;2022-07-10T05:25:22;3.83;;;3.45;;
67164;SDS011;54093;50.014;19.984;2022-07-10T05:34:43;7.38;;;4.20;;
67164;SDS011;54093;50.014;19.984;2022-07-10T05:44:04;4.13;;;3.92;;
67164;SDS011;54093;50.014;19.984;2022-07-10T05:53:25;4.70;;;4.13;;
67164;SDS011;54093;50.014;19.984;2022-07-10T06:02:45;5.05;;;4.50;;
67164;SDS011;54093;50.014;19.984;2022-07-10T06:12:06;4.45;;;4.10;;
67164;SDS011;54093;50.014;19.984;2022-07-10T06:21:27;4.93;;;4.40;;
67164;SDS011;54093;50.014;19.984;2022-07-10T06:30:48;5.63;;;4.03;;
67164;SDS011;54093;50.014;19.984;2022-07-10T06:40:10;6.45;;;4.32;;
67164;SDS011;54093;50.014;19.984;2022-07-10T06:49:33;3.45;;;3.35;;
67164;SDS011;54093;50.014;19.984;2022-07-10T06:58:54;3.42;;;2.58;;
67164;SDS011;54093;50.014;19.984;2022-07-10T07:08:15;1.73;;;1.60;;
67164;SDS011;54093;50.014;19.984;2022-07-10T07:17:40;1.40;;;1.30;;
67164;SDS011;54093;50.014;19.984;2022-07-10T07:27:39;3.05;;;1.00;;
67164;SDS011;54093;50.014;19.984;2022-07-10T07:37:00;1.50;;;1.20;;
67164;SDS011;54093;50.014;19.984;2022-07-10T07:46:21;0.98;;;0.98;;
67164;SDS011;54093;50.014;19.984;2022-07-10T07:55:41;2.22;;;0.90;;
67164;SDS011;54093;50.014;19.984;2022-07-10T08:05:02;3.85;;;1.20;;
67164;SDS011;54093;50.014;19.984;2022-07-10T08:14:25;1.58;;;1.00;;
67164;SDS011;54093;50.014;19.984;2022-07-10T08:23:45;1.10;;;1.10;;
67164;SDS011;54093;50.014;19.984;2022-07-10T08:33:06;0.88;;;0.88;;
67164;SDS011;54093;50.014;19.984;2022-07-10T08:42:27;1.23;;;1.13;;
67164;SDS011;54093;50.014;19.984;2022-07-10T09:10:43;1.20;;;1.10;;
67164;SDS011;54093;50.014;19.984;2022-07-10T09:20:04;3.05;;;1.35;;
67164;SDS011;54093;50.014;19.984;2022-07-10T09:39:07;3.88;;;1.13;;
67164;SDS011;54093;50.014;19.984;2022-07-10T09:48:28;3.53;;;0.93;;
67164;SDS011;54093;50.014;19.984;2022-07-10T09:57:52;2.50;;;0.98;;
67164;SDS011;54093;50.014;19.984;2022-07-10T10:07:23;0.95;;;0.90;;
67164;SDS011;54093;50.014;19.984;2022-07-10T10:16:45;4.32;;;1.05;;
67164;SDS011;54093;50.014;19.984;2022-07-10T10:26:07;1.55;;;1.25;;
67164;SDS011;54093;50.014;19.984;2022-07-10T10:35:41;1.02;;;0.93;;
67164;SDS011;54093;50.014;19.984;2022-07-10T10:45:24;3.92;;;1.20;;
67164;SDS011;54093;50.014;19.984;2022-07-10T11:04:24;1.90;;;1.10;;
67164;SDS011;54093;50.014;19.984;2022-07-10T11:13:45;4.88;;;0.85;;
67164;SDS011;54093;50.014;19.984;2022-07-10T11:23:12;2.83;;;1.10;;
67164;SDS011;54093;50.014;19.984;2022-07-10T11:32:49;1.65;;;1.10;;
67164;SDS011;54093;50.014;19.984;2022-07-10T11:42:11;1.15;;;1.02;;
67164;SDS011;54093;50.014;19.984;2022-07-10T11:51:33;1.02;;;0.93;;
67164;SDS011;54093;50.014;19.984;2022-07-10T12:10:19;0.85;;;0.80;;
67164;SDS011;54093;50.014;19.984;2022-07-10T12:19:41;2.67;;;1.40;;
67164;SDS011;54093;50.014;19.984;2022-07-10T12:29:03;2.47;;;0.82;;
67164;SDS011;54093;50.014;19.984;2022-07-10T12:38:25;2.17;;;1.02;;
67164;SDS011;54093;50.014;19.984;2022-07-10T12:47:52;1.13;;;1.00;;
67164;SDS011;54093;50.014;19.984;2022-07-10T12:57:13;4.35;;;1.30;;
67164;SDS011;54093;50.014;19.984;2022-07-10T13:06:34;2.60;;;1.10;;
67164;SDS011;54093;50.014;19.984;2022-07-10T13:15:59;2.53;;;1.10;;
67164;SDS011;54093;50.014;19.984;2022-07-10T13:25:20;6.07;;;1.20;;
67164;SDS011;54093;50.014;19.984;2022-07-10T13:34:41;2.53;;;1.00;;
67164;SDS011;54093;50.014;19.984;2022-07-10T13:44:02;4.82;;;1.30;;
67164;SDS011;54093;50.014;19.984;2022-07-10T13:53:23;1.25;;;0.90;;
67164;SDS011;54093;50.014;19.984;2022-07-10T14:02:43;1.23;;;0.90;;
67164;SDS011;54093;50.014;19.984;2022-07-10T14:12:04;1.67;;;1.20;;
67164;SDS011;54093;50.014;19.984;2022-07-10T14:21:25;6.85;;;1.20;;
67164;SDS011;54093;50.014;19.984;2022-07-10T14:30:48;3.67;;;1.20;;
67164;SDS011;54093;50.014;19.984;2022-07-10T14:40:09;2.50;;;1.48;;
67164;SDS011;54093;50.014;19.984;2022-07-10T14:49:30;1.20;;;0.70;;
67164;SDS011;54093;50.014;19.984;2022-07-10T14:58:51;0.50;;;0.50;;
67164;SDS011;54093;50.014;19.984;2022-07-10T15:08:12;0.70;;;0.70;;
67164;SDS011;54093;50.014;19.984;2022-07-10T15:17:33;0.80;;;0.80;;
67164;SDS011;54093;50.014;19.984;2022-07-10T15:26:55;1.15;;;0.93;;
67164;SDS011;54093;50.014;19.984;2022-07-10T15:36:16;1.98;;;0.85;;
67164;SDS011;54093;50.014;19.984;2022-07-10T15:45:39;1.67;;;0.88;;
67164;SDS011;54093;50.014;19.984;2022-07-10T15:54:59;0.90;;;0.90;;
67164;SDS011;54093;50.014;19.984;2022-07-10T16:04:21;2.63;;;1.00;;
67164;SDS011;54093;50.014;19.984;2022-07-10T16:13:42;1.27;;;0.75;;
67164;SDS011;54093;50.014;19.984;2022-07-10T16:23:03;4.50;;;0.90;;
67164;SDS011;54093;50.014;19.984;2022-07-10T16:32:24;0.93;;;0.85;;
67164;SDS011;54093;50.014;19.984;2022-07-10T16:41:45;1.90;;;0.85;;
67164;SDS011;54093;50.014;19.984;2022-07-10T16:51:06;1.50;;;0.95;;
67164;SDS011;54093;50.014;19.984;2022-07-10T17:00:26;2.10;;;0.88;;
67164;SDS011;54093;50.014;19.984;2022-07-10T17:09:47;0.65;;;0.63;;
67164;SDS011;54093;50.014;19.984;2022-07-10T17:19:08;0.98;;;0.88;;
67164;SDS011;54093;50.014;19.984;2022-07-10T17:28:29;1.15;;;1.00;;
67164;SDS011;54093;50.014;19.984;2022-07-10T17:37:50;1.20;;;1.10;;
67164;SDS011;54093;50.014;19.984;2022-07-10T17:47:10;0.82;;;0.82;;
67164;SDS011;54093;50.014;19.984;2022-07-10T17:56:31;0.98;;;0.88;;
67164;SDS011;54093;50.014;19.984;2022-07-10T18:05:52;3.78;;;1.00;;
67164;SDS011;54093;50.014;19.984;2022-07-10T18:15:13;1.67;;;0.80;;
67164;SDS011;54093;50.014;19.984;2022-07-10T18:24:33;0.73;;;0.73;;
67164;SDS011;54093;50.014;19.984;2022-07-10T18:33:54;0.80;;;0.80;;
67164;SDS011;54093;50.014;19.984;2022-07-10T18:43:34;0.80;;;0.80;;
67164;SDS011;54093;50.014;19.984;2022-07-10T18:52:55;0.80;;;0.73;;
67164;SDS011;54093;50.014;19.984;2022-07-10T19:02:15;2.05;;;0.93;;
67164;SDS011;54093;50.014;19.984;2022-07-10T19:11:36;0.82;;;0.82;;
67164;SDS011;54093;50.014;19.984;2022-07-10T19:20:57;1.25;;;0.90;;
67164;SDS011;54093;50.014;19.984;2022-07-10T19:30:19;1.80;;;1.70;;
67164;SDS011;54093;50.014;19.984;2022-07-10T19:39:40;1.90;;;1.80;;
67164;SDS011;54093;50.014;19.984;2022-07-10T19:49:01;2.13;;;1.35;;
67164;SDS011;54093;50.014;19.984;2022-07-10T19:58:22;3.75;;;1.77;;
67164;SDS011;54093;50.014;19.984;2022-07-10T20:07:43;1.40;;;1.30;;
67164;SDS011;54093;50.014;19.984;2022-07-10T20:17:03;2.90;;;1.30;;
67164;SDS011;54093;50.014;19.984;2022-07-10T20:26:24;2.05;;;1.30;;
67164;SDS011;54093;50.014;19.984;2022-07-10T20:35:45;1.42;;;1.20;;
67164;SDS011;54093;50.014;19.984;2022-07-10T20:45:26;2.40;;;1.30;;
67164;SDS011;54093;50.014;19.984;2022-07-10T20:54:47;1.52;;;1.25;;
67164;SDS011;54093;50.014;19.984;2022-07-10T21:04:08;1.48;;;1.30;;
67164;SDS011;54093;50.014;19.984;2022-07-10T21:13:29;1.23;;;1.17;;
67164;SDS011;54093;50.014;19.984;2022-07-10T21:22:50;2.67;;;1.40;;
67164;SDS011;54093;50.014;19.984;2022-07-10T21:32:11;1.52;;;1.30;;
67164;SDS011;54093;50.014;19.984;2022-07-10T21:41:32;1.50;;;1.40;;
67164;SDS011;54093;50.014;19.984;2022-07-10T21:50:53;2.72;;;1.58;;
67164;SDS011;54093;50.014;19.984;2022-07-10T22:00:14;4.50;;;1.88;;
67164;SDS011;54093;50.014;19.984;2022-07-10T22:09:35;1.27;;;1.13;;
67164;SDS011;54093;50.014;19.984;2022-07-10T22:18:55;1.70;;;1.33;;
67164;SDS011;54093;50.014;19.984;2022-07-10T22:28:16;2.35;;;1.60;;
67164;SDS011;54093;50.014;19.984;2022-07-10T22:37:37;1.85;;;1.50;;
67164;SDS011;54093;50.014;19.984;2022-07-10T22:46:58;4.55;;;1.25;;
67164;SDS011;54093;50.014;19.984;2022-07-10T22:56:18;1.90;;;1.65;;
67164;SDS011;54093;50.014;19.984;2022-07-10T23:05:39;1.38;;;1.27;;
67164;SDS011;54093;50.014;19.984;2022-07-10T23:15:00;1.60;;;1.50;;
67164;SDS011;54093;50.014;19.984;2022-07-10T23:24:21;1.27;;;1.20;;
67164;SDS011;54093;50.014;19.984;2022-07-10T23:33:42;4.78;;;1.60;;
67164;SDS011;54093;50.014;19.984;2022-07-10T23:43:02;1.50;;;1.40;;
67164;SDS011;54093;50.014;19.984;2022-07-10T23:52:23;1.80;;;1.42;;
